createdAt,value
2017-12-03T00:00:29.669Z,2.02
2017-12-03T00:01:30.198Z,1.97
2017-12-03T00:03:25.670Z,1.93
2017-12-03T00:04:25.639Z,1.92
2017-12-03T00:06:21.583Z,1.92
2017-12-03T00:07:21.564Z,1.86
2017-12-03T00:09:18.013Z,1.83
2017-12-03T00:10:17.501Z,1.97
2017-12-03T00:12:13.429Z,1.92
2017-12-03T00:13:13.426Z,1.89
2017-12-03T00:15:13.808Z,1.94
2017-12-03T00:16:11.462Z,1.86
2017-12-03T00:18:08.904Z,1.98
2017-12-03T00:19:08.395Z,2.01
2017-12-03T00:21:05.358Z,2.12
2017-12-03T00:22:03.335Z,2.09
2017-12-03T00:24:00.293Z,2.08
2017-12-03T00:24:59.269Z,2.12
2017-12-03T00:26:55.722Z,2.05
2017-12-03T00:27:55.712Z,2.04
2017-12-03T00:29:53.657Z,2.08
2017-12-03T00:30:51.114Z,2.08
2017-12-03T00:32:48.569Z,2.16
2017-12-03T00:33:47.008Z,2.15
2017-12-03T00:35:42.938Z,2.18
2017-12-03T00:36:42.925Z,2.26
2017-12-03T00:38:39.379Z,2.22
2017-12-03T00:39:38.841Z,2.23
2017-12-03T00:41:34.787Z,2.27
2017-12-03T00:42:34.766Z,2.30
2017-12-03T00:44:31.729Z,2.38
2017-12-03T00:45:30.672Z,2.38
2017-12-03T00:47:25.627Z,2.34
2017-12-03T00:48:25.094Z,2.48
2017-12-03T00:50:22.533Z,2.44
2017-12-03T00:51:21.036Z,2.48
2017-12-03T00:53:17.490Z,2.33
2017-12-03T00:54:16.958Z,2.38
2017-12-03T00:56:13.878Z,2.38
2017-12-03T00:57:12.882Z,2.36
2017-12-03T00:59:08.804Z,2.36
2017-12-03T01:00:08.814Z,2.36
2017-12-03T01:02:04.760Z,2.44
2017-12-03T01:03:05.254Z,2.42
2017-12-03T01:05:00.702Z,2.45
2017-12-03T01:06:01.208Z,2.45
2017-12-03T01:07:56.638Z,2.51
2017-12-03T01:08:56.600Z,2.49
2017-12-03T01:10:54.552Z,2.48
2017-12-03T01:11:54.520Z,2.42
2017-12-03T01:13:50.461Z,2.45
2017-12-03T01:14:50.448Z,2.48
2017-12-03T01:16:49.890Z,2.48
2017-12-03T01:17:49.817Z,2.38
2017-12-03T01:19:44.264Z,2.33
2017-12-03T01:20:44.277Z,2.36
2017-12-03T01:22:40.253Z,2.38
2017-12-03T01:23:40.209Z,2.31
2017-12-03T01:25:36.651Z,2.33
2017-12-03T01:26:36.122Z,2.33
2017-12-03T01:28:34.562Z,2.36
2017-12-03T01:29:33.564Z,2.31
2017-12-03T01:31:28.982Z,2.40
2017-12-03T01:32:29.464Z,2.34
2017-12-03T01:34:25.405Z,2.30
2017-12-03T01:35:25.404Z,2.34
2017-12-03T01:37:22.333Z,2.36
2017-12-03T01:38:20.834Z,2.34
2017-12-03T01:40:16.771Z,2.38
2017-12-03T01:41:16.784Z,2.41
2017-12-03T01:43:12.662Z,2.34
2017-12-03T01:44:13.204Z,2.47
2017-12-03T01:46:08.626Z,2.42
2017-12-03T01:47:08.606Z,2.40
2017-12-03T01:49:04.565Z,2.48
2017-12-03T01:50:04.549Z,2.44
2017-12-03T01:52:00.992Z,2.38
2017-12-03T01:53:00.456Z,2.34
2017-12-03T01:54:58.514Z,2.30
2017-12-03T01:55:59.402Z,2.30
2017-12-03T01:57:57.965Z,2.30
2017-12-03T01:58:56.432Z,2.27
2017-12-03T02:00:52.374Z,2.31
2017-12-03T02:01:52.338Z,2.30
2017-12-03T02:03:48.789Z,2.33
2017-12-03T02:04:48.280Z,2.30
2017-12-03T02:06:44.720Z,2.34
2017-12-03T02:07:44.199Z,2.30
2017-12-03T02:09:40.144Z,2.33
2017-12-03T02:10:40.121Z,2.40
2017-12-03T02:12:36.042Z,2.34
2017-12-03T02:13:36.004Z,2.33
2017-12-03T02:15:33.926Z,2.40
2017-12-03T02:16:33.928Z,2.38
2017-12-03T02:18:28.380Z,2.31
2017-12-03T02:19:28.350Z,2.22
2017-12-03T02:21:25.803Z,2.26
2017-12-03T02:22:24.271Z,2.30
2017-12-03T02:24:20.176Z,2.31
2017-12-03T02:25:20.204Z,2.29
2017-12-03T02:27:16.133Z,2.27
2017-12-03T02:28:16.111Z,2.27
2017-12-03T02:30:11.054Z,2.31
2017-12-03T02:31:10.526Z,2.23
2017-12-03T02:33:06.429Z,2.31
2017-12-03T02:34:06.413Z,2.33
2017-12-03T02:36:02.340Z,2.34
2017-12-03T02:37:02.341Z,2.29
2017-12-03T02:38:58.303Z,2.38
2017-12-03T02:39:56.776Z,2.26
2017-12-03T02:41:52.695Z,2.38
2017-12-03T02:42:52.704Z,2.33
2017-12-03T02:44:48.624Z,2.36
2017-12-03T02:45:48.615Z,2.36
2017-12-03T02:47:45.077Z,2.36
2017-12-03T02:48:44.536Z,2.40
2017-12-03T02:50:42.990Z,2.34
2017-12-03T02:51:42.463Z,2.34
2017-12-03T02:53:40.437Z,2.38
2017-12-03T02:54:40.403Z,2.36
2017-12-03T02:56:36.370Z,2.38
2017-12-03T02:57:36.312Z,2.34
2017-12-03T02:59:34.781Z,2.36
2017-12-03T03:00:34.228Z,2.41
2017-12-03T03:02:33.172Z,2.36
2017-12-03T03:03:33.169Z,2.41
2017-12-03T03:05:28.175Z,2.27
2017-12-03T03:06:28.156Z,2.30
2017-12-03T03:08:26.107Z,2.38
2017-12-03T03:09:26.072Z,2.38
2017-12-03T03:11:22.042Z,2.29
2017-12-03T03:12:21.999Z,2.36
2017-12-03T03:14:18.459Z,2.31
2017-12-03T03:15:17.912Z,2.33
2017-12-03T03:17:13.861Z,2.18
2017-12-03T03:18:13.849Z,2.26
2017-12-03T03:20:09.771Z,2.30
2017-12-03T03:21:09.754Z,2.36
2017-12-03T03:23:07.209Z,2.40
2017-12-03T03:24:05.648Z,2.38
2017-12-03T03:26:04.599Z,2.29
2017-12-03T03:27:04.592Z,2.30
2017-12-03T03:29:01.618Z,2.41
2017-12-03T03:30:02.150Z,2.27
2017-12-03T03:31:59.566Z,2.38
2017-12-03T03:33:00.057Z,2.33
2017-12-03T03:34:57.992Z,2.27
2017-12-03T03:35:57.548Z,2.33
2017-12-03T03:37:53.491Z,2.30
2017-12-03T03:38:53.479Z,2.27
2017-12-03T03:40:49.921Z,2.31
2017-12-03T03:41:49.407Z,2.27
2017-12-03T03:43:45.331Z,2.30
2017-12-03T03:44:45.318Z,2.33
2017-12-03T03:46:41.775Z,2.34
2017-12-03T03:47:41.242Z,2.40
2017-12-03T03:49:37.179Z,2.48
2017-12-03T03:50:37.164Z,2.48
2017-12-03T03:52:33.127Z,2.48
2017-12-03T03:53:33.111Z,2.58
2017-12-03T03:55:29.092Z,2.47
2017-12-03T03:56:29.057Z,2.47
2017-12-03T03:58:25.499Z,2.51
2017-12-03T03:59:24.987Z,2.51
2017-12-03T04:01:20.898Z,2.47
2017-12-03T04:02:20.896Z,2.49
2017-12-03T04:04:17.354Z,2.48
2017-12-03T04:05:16.819Z,2.34
2017-12-03T04:07:13.278Z,2.44
2017-12-03T04:08:12.742Z,2.44
2017-12-03T04:10:08.676Z,2.49
2017-12-03T04:11:09.186Z,2.45
2017-12-03T04:13:04.626Z,2.33
2017-12-03T04:14:04.576Z,2.31
2017-12-03T04:16:01.527Z,2.44
2017-12-03T04:17:00.489Z,2.47
2017-12-03T04:18:57.933Z,2.47
2017-12-03T04:19:56.406Z,2.51
2017-12-03T04:21:52.362Z,2.47
2017-12-03T04:22:52.342Z,2.47
2017-12-03T04:24:48.289Z,2.45
2017-12-03T04:25:48.255Z,2.47
2017-12-03T04:27:44.704Z,2.44
2017-12-03T04:28:44.189Z,2.44
2017-12-03T04:30:40.614Z,2.45
2017-12-03T04:31:40.113Z,2.47
2017-12-03T04:33:36.084Z,2.51
2017-12-03T04:34:36.049Z,2.47
2017-12-03T04:36:32.981Z,2.51
2017-12-03T04:37:32.017Z,2.51
2017-12-03T04:39:27.934Z,2.54
2017-12-03T04:40:28.461Z,2.52
2017-12-03T04:42:27.358Z,2.54
2017-12-03T04:43:25.920Z,2.52
2017-12-03T04:45:21.862Z,2.59
2017-12-03T04:46:20.343Z,2.65
2017-12-03T04:48:18.800Z,2.67
2017-12-03T04:49:18.256Z,2.70
2017-12-03T04:51:14.190Z,2.65
2017-12-03T04:52:14.180Z,2.60
2017-12-03T04:54:10.113Z,2.65
2017-12-03T04:55:10.128Z,2.63
2017-12-03T04:57:08.061Z,2.62
2017-12-03T04:58:06.121Z,2.62
2017-12-03T05:00:05.545Z,2.63
2017-12-03T05:01:04.026Z,2.63
2017-12-03T05:02:59.982Z,2.58
2017-12-03T05:03:59.929Z,2.60
2017-12-03T05:05:55.895Z,2.60
2017-12-03T05:06:55.860Z,2.65
2017-12-03T05:08:51.804Z,2.65
2017-12-03T05:09:51.787Z,2.72
2017-12-03T05:11:47.700Z,2.66
2017-12-03T05:12:47.717Z,2.65
2017-12-03T05:14:42.160Z,2.60
2017-12-03T05:15:42.134Z,2.73
2017-12-03T05:17:38.058Z,2.70
2017-12-03T05:18:38.055Z,2.70
2017-12-03T05:20:33.998Z,2.67
2017-12-03T05:21:33.997Z,2.73
2017-12-03T05:23:32.454Z,2.72
2017-12-03T05:24:32.006Z,2.70
2017-12-03T05:26:29.970Z,2.77
2017-12-03T05:27:29.932Z,2.73
2017-12-03T05:29:27.857Z,2.76
2017-12-03T05:30:27.832Z,2.73
2017-12-03T05:32:23.802Z,2.73
2017-12-03T05:33:23.724Z,2.76
2017-12-03T05:35:19.703Z,2.83
2017-12-03T05:36:19.671Z,2.80
2017-12-03T05:38:18.142Z,2.84
2017-12-03T05:39:17.592Z,2.90
2017-12-03T05:41:12.047Z,2.90
2017-12-03T05:42:12.000Z,2.88
2017-12-03T05:44:07.931Z,2.88
2017-12-03T05:45:07.916Z,2.90
2017-12-03T05:47:03.821Z,2.88
2017-12-03T05:48:03.827Z,2.90
2017-12-03T05:50:02.773Z,2.96
2017-12-03T05:51:01.875Z,2.88
2017-12-03T05:52:58.330Z,2.88
2017-12-03T05:53:57.814Z,2.88
2017-12-03T05:55:53.774Z,2.93
2017-12-03T05:56:53.735Z,2.88
2017-12-03T05:58:54.690Z,2.78
2017-12-03T05:59:54.218Z,2.85
2017-12-03T06:01:52.098Z,2.81
2017-12-03T06:02:52.610Z,2.88
2017-12-03T06:04:48.082Z,2.83
2017-12-03T06:05:48.026Z,2.85
2017-12-03T06:07:43.994Z,2.85
2017-12-03T06:08:43.956Z,2.77
2017-12-03T06:10:41.416Z,2.76
2017-12-03T06:11:39.879Z,2.72
2017-12-03T06:13:35.835Z,2.77
2017-12-03T06:14:35.815Z,2.77
2017-12-03T06:16:31.768Z,2.77
2017-12-03T06:17:31.758Z,2.76
2017-12-03T06:19:33.209Z,2.69
2017-12-03T06:20:29.799Z,2.65
2017-12-03T06:22:26.761Z,2.69
2017-12-03T06:23:25.722Z,2.63
2017-12-03T06:25:23.633Z,2.65
2017-12-03T06:26:23.628Z,2.55
2017-12-03T06:28:22.574Z,2.55
2017-12-03T06:29:19.554Z,2.49
2017-12-03T06:31:13.989Z,2.52
2017-12-03T06:32:13.978Z,2.51
2017-12-03T06:34:10.930Z,2.55
2017-12-03T06:35:09.930Z,2.49
2017-12-03T06:37:05.860Z,2.45
2017-12-03T06:38:05.841Z,2.42
2017-12-03T06:40:01.809Z,2.47
2017-12-03T06:41:02.330Z,2.45
2017-12-03T06:42:59.201Z,2.41
2017-12-03T06:43:57.664Z,2.51
2017-12-03T06:45:52.114Z,2.49
2017-12-03T06:46:52.094Z,2.47
2017-12-03T06:48:49.039Z,2.47
2017-12-03T06:49:48.562Z,2.59
2017-12-03T06:51:43.968Z,2.42
2017-12-03T06:52:43.964Z,2.47
2017-12-03T06:54:43.904Z,2.36
2017-12-03T06:55:41.864Z,2.45
2017-12-03T06:57:37.795Z,2.48
2017-12-03T06:58:37.771Z,2.45
2017-12-03T07:00:35.701Z,2.45
2017-12-03T07:01:35.683Z,2.45
2017-12-03T07:03:34.153Z,2.45
2017-12-03T07:04:33.620Z,2.42
2017-12-03T07:06:29.567Z,2.42
2017-12-03T07:07:30.079Z,2.51
2017-12-03T07:09:25.474Z,2.47
2017-12-03T07:10:25.442Z,2.44
2017-12-03T07:12:21.403Z,2.44
2017-12-03T07:13:21.343Z,2.41
2017-12-03T07:15:19.775Z,2.52
2017-12-03T07:16:21.609Z,2.41
2017-12-03T07:18:17.782Z,2.49
2017-12-03T07:19:17.336Z,2.44
2017-12-03T07:21:13.734Z,2.47
2017-12-03T07:22:13.216Z,2.47
2017-12-03T07:24:10.164Z,2.40
2017-12-03T07:25:09.141Z,2.45
2017-12-03T07:27:05.218Z,2.42
2017-12-03T07:28:05.102Z,2.41
2017-12-03T07:30:01.069Z,2.33
2017-12-03T07:31:01.038Z,2.31
2017-12-03T07:32:56.974Z,2.27
2017-12-03T07:33:56.951Z,2.29
2017-12-03T07:35:54.979Z,2.27
2017-12-03T07:36:55.005Z,2.30
2017-12-03T07:38:51.000Z,2.34
2017-12-03T07:39:50.910Z,2.34
2017-12-03T07:41:49.356Z,2.33
2017-12-03T07:42:48.428Z,2.36
2017-12-03T07:44:46.316Z,2.30
2017-12-03T07:45:44.360Z,2.41
2017-12-03T07:47:40.320Z,2.48
2017-12-03T07:48:40.288Z,2.36
2017-12-03T07:50:36.231Z,2.33
2017-12-03T07:51:36.210Z,2.33
2017-12-03T07:53:34.159Z,2.33
2017-12-03T07:54:34.172Z,2.33
2017-12-03T07:56:30.070Z,2.36
2017-12-03T07:57:30.055Z,2.31
2017-12-03T07:59:27.016Z,2.38
2017-12-03T08:00:26.042Z,2.29
2017-12-03T08:02:21.894Z,2.27
2017-12-03T08:03:21.892Z,2.18
2017-12-03T08:05:17.800Z,2.18
2017-12-03T08:06:17.816Z,2.27
2017-12-03T08:08:13.757Z,2.34
2017-12-03T08:09:13.717Z,2.40
2017-12-03T08:11:12.667Z,2.29
2017-12-03T08:12:11.964Z,2.34
2017-12-03T08:14:05.453Z,2.34
2017-12-03T08:15:05.416Z,2.36
2017-12-03T08:17:01.858Z,2.47
2017-12-03T08:18:01.337Z,2.41
2017-12-03T08:19:58.299Z,2.45
2017-12-03T08:20:57.303Z,2.54
2017-12-03T08:22:53.186Z,2.65
2017-12-03T08:23:53.206Z,2.63
2017-12-03T08:25:50.046Z,2.60
2017-12-03T08:26:49.100Z,2.70
2017-12-03T08:28:43.509Z,2.77
2017-12-03T08:29:43.496Z,2.72
2017-12-03T08:31:39.428Z,2.60
2017-12-03T08:32:39.447Z,2.70
2017-12-03T08:34:34.382Z,2.73
2017-12-03T08:35:33.873Z,2.72
2017-12-03T08:37:30.747Z,2.73
2017-12-03T08:38:29.803Z,2.67
2017-12-03T08:40:25.777Z,2.73
2017-12-03T08:41:25.717Z,2.70
2017-12-03T08:43:22.662Z,2.73
2017-12-03T08:44:22.158Z,2.72
2017-12-03T08:46:17.542Z,2.63
2017-12-03T08:47:18.100Z,2.59
2017-12-03T08:49:11.493Z,2.63
2017-12-03T08:50:11.495Z,2.62
2017-12-03T08:52:06.953Z,2.62
2017-12-03T08:53:06.902Z,2.59
2017-12-03T08:55:01.902Z,2.65
2017-12-03T08:56:01.331Z,2.60
2017-12-03T08:57:57.285Z,2.67
2017-12-03T08:58:57.793Z,2.63
2017-12-03T09:00:54.723Z,2.59
2017-12-03T09:01:53.212Z,2.62
2017-12-03T09:03:49.150Z,2.62
2017-12-03T09:04:49.112Z,2.67
2017-12-03T09:06:45.096Z,2.58
2017-12-03T09:07:45.049Z,2.65
2017-12-03T09:09:39.473Z,2.65
2017-12-03T09:10:39.459Z,2.62
2017-12-03T09:12:34.430Z,2.60
2017-12-03T09:13:33.871Z,2.63
2017-12-03T09:15:28.283Z,2.69
2017-12-03T09:16:28.286Z,2.81
2017-12-03T09:18:23.238Z,2.67
2017-12-03T09:19:22.728Z,2.76
2017-12-03T09:21:17.654Z,2.66
2017-12-03T09:22:17.119Z,2.77
2017-12-03T09:24:11.560Z,2.70
2017-12-03T09:25:12.068Z,2.72
2017-12-03T09:27:07.456Z,2.66
2017-12-03T09:28:07.478Z,2.66
2017-12-03T09:30:03.900Z,2.69
2017-12-03T09:31:03.386Z,2.73
2017-12-03T09:32:59.851Z,2.69
2017-12-03T09:33:59.289Z,2.73
2017-12-03T09:35:53.704Z,2.80
2017-12-03T09:36:54.237Z,2.81
2017-12-03T09:38:52.162Z,2.80
2017-12-03T09:39:51.626Z,2.80
2017-12-03T09:41:46.023Z,2.72
2017-12-03T09:42:46.035Z,2.73
2017-12-03T09:44:39.490Z,2.73
2017-12-03T09:45:39.458Z,2.72
2017-12-03T09:47:33.877Z,2.67
2017-12-03T09:48:33.896Z,2.76
2017-12-03T09:50:28.415Z,2.78
2017-12-03T09:51:28.327Z,2.76
2017-12-03T09:53:23.258Z,2.85
2017-12-03T09:54:22.747Z,2.85
2017-12-03T09:56:17.616Z,2.87
2017-12-03T09:57:16.161Z,2.95
2017-12-03T09:59:12.140Z,2.93
2017-12-03T10:00:13.121Z,2.91
2017-12-03T10:02:07.134Z,2.83
2017-12-03T10:03:06.596Z,2.90
2017-12-03T10:05:00.040Z,2.87
2017-12-03T10:05:59.984Z,2.93
2017-12-03T10:07:54.421Z,2.84
2017-12-03T10:08:54.407Z,2.84
2017-12-03T10:10:47.846Z,2.81
2017-12-03T10:11:47.858Z,2.85
2017-12-03T10:13:42.293Z,2.85
2017-12-03T10:14:42.273Z,2.84
2017-12-03T10:16:36.680Z,2.88
2017-12-03T10:17:36.683Z,2.80
2017-12-03T10:19:31.106Z,2.78
2017-12-03T10:20:31.089Z,2.83
2017-12-03T10:22:28.046Z,2.90
2017-12-03T10:23:27.011Z,2.83
2017-12-03T10:25:21.473Z,2.90
2017-12-03T10:26:21.441Z,2.85
2017-12-03T10:28:14.850Z,2.85
2017-12-03T10:29:14.854Z,2.73
2017-12-03T10:31:11.307Z,2.73
2017-12-03T10:32:11.297Z,2.65
2017-12-03T10:34:05.227Z,2.73
2017-12-03T10:35:05.207Z,2.70
2017-12-03T10:36:59.156Z,2.78
2017-12-03T10:37:58.636Z,2.76
2017-12-03T10:39:54.085Z,2.70
2017-12-03T10:40:53.582Z,2.77
2017-12-03T10:42:48.963Z,2.73
2017-12-03T10:43:49.437Z,2.72
2017-12-03T10:45:44.933Z,2.76
2017-12-03T10:46:44.934Z,2.77
2017-12-03T10:48:39.361Z,2.77
2017-12-03T10:49:38.339Z,2.78
2017-12-03T10:51:32.782Z,2.87
2017-12-03T10:52:32.801Z,2.87
2017-12-03T10:54:27.543Z,2.88
2017-12-03T10:55:28.086Z,2.85
2017-12-03T10:57:20.970Z,2.90
2017-12-03T10:58:21.464Z,2.88
2017-12-03T11:00:14.404Z,2.98
2017-12-03T11:01:14.391Z,2.98
2017-12-03T11:03:10.354Z,2.84
2017-12-03T11:04:10.332Z,2.91
2017-12-03T11:06:03.720Z,2.91
2017-12-03T11:07:03.729Z,2.98
2017-12-03T11:08:59.713Z,3.02
2017-12-03T11:09:59.654Z,2.96
2017-12-03T11:11:54.086Z,2.95
2017-12-03T11:12:54.082Z,2.90
2017-12-03T11:14:49.035Z,2.98
2017-12-03T11:15:48.530Z,2.99
2017-12-03T11:17:41.971Z,3.03
2017-12-03T11:18:41.938Z,3.08
2017-12-03T11:20:35.930Z,3.08
2017-12-03T11:21:35.376Z,3.08
2017-12-03T11:23:29.791Z,3.06
2017-12-03T11:24:30.304Z,3.03
2017-12-03T11:26:24.223Z,3.09
2017-12-03T11:27:24.220Z,3.02
2017-12-03T11:29:19.664Z,3.06
2017-12-03T11:30:19.149Z,3.11
2017-12-03T11:32:13.070Z,3.13
2017-12-03T11:33:13.580Z,3.13
2017-12-03T11:35:07.517Z,3.16
2017-12-03T11:36:07.497Z,3.08
2017-12-03T11:38:00.950Z,3.06
2017-12-03T11:39:01.449Z,3.08
2017-12-03T11:40:54.404Z,3.16
2017-12-03T11:41:54.885Z,3.13
2017-12-03T11:43:48.836Z,3.03
2017-12-03T11:44:48.805Z,3.11
2017-12-03T11:46:42.252Z,3.13
2017-12-03T11:47:42.237Z,3.09
2017-12-03T11:49:36.710Z,3.16
2017-12-03T11:50:37.203Z,3.06
2017-12-03T11:52:31.125Z,3.06
2017-12-03T11:53:31.054Z,3.16
2017-12-03T11:55:26.016Z,3.16
2017-12-03T11:56:25.479Z,3.09
2017-12-03T11:58:20.430Z,3.26
2017-12-03T11:59:19.438Z,3.19
2017-12-03T12:01:13.322Z,3.05
2017-12-03T12:02:13.311Z,3.09
2017-12-03T12:04:07.716Z,3.13
2017-12-03T12:05:07.737Z,3.02
2017-12-03T12:07:02.174Z,3.14
2017-12-03T12:08:02.685Z,3.13
2017-12-03T12:09:57.093Z,3.11
2017-12-03T12:10:56.566Z,3.16
2017-12-03T12:12:51.523Z,3.24
2017-12-03T12:13:50.982Z,3.26
2017-12-03T12:15:45.344Z,3.32
2017-12-03T12:16:44.397Z,3.24
2017-12-03T12:18:38.827Z,3.20
2017-12-03T12:19:39.349Z,3.23
2017-12-03T12:21:33.261Z,3.14
2017-12-03T12:22:33.249Z,3.26
2017-12-03T12:24:27.202Z,3.19
2017-12-03T12:25:27.186Z,3.23
2017-12-03T12:27:20.110Z,3.23
2017-12-03T12:28:20.113Z,3.27
2017-12-03T12:30:15.065Z,3.20
2017-12-03T12:31:14.528Z,3.20
2017-12-03T12:33:09.133Z,3.24
2017-12-03T12:34:09.140Z,3.27
2017-12-03T12:36:03.572Z,3.23
2017-12-03T12:37:03.560Z,3.26
2017-12-03T12:38:58.026Z,3.16
2017-12-03T12:39:57.966Z,3.14
2017-12-03T12:41:51.924Z,3.27
2017-12-03T12:42:51.397Z,3.29
2017-12-03T12:44:45.809Z,3.32
2017-12-03T12:45:45.828Z,3.37
2017-12-03T12:47:40.283Z,3.45
2017-12-03T12:48:40.262Z,3.43
2017-12-03T12:50:33.683Z,3.46
2017-12-03T12:51:33.675Z,3.40
2017-12-03T12:53:29.125Z,3.42
2017-12-03T12:54:28.387Z,3.40
2017-12-03T12:56:21.810Z,3.42
2017-12-03T12:57:21.753Z,3.49
2017-12-03T12:59:16.233Z,3.37
2017-12-03T13:00:16.173Z,3.48
2017-12-03T13:02:10.628Z,3.40
2017-12-03T13:03:11.115Z,3.45
2017-12-03T13:05:04.080Z,3.49
2017-12-03T13:06:04.575Z,3.53
2017-12-03T13:07:58.470Z,3.53
2017-12-03T13:08:58.462Z,3.48
2017-12-03T13:10:57.922Z,3.45
2017-12-03T13:11:52.891Z,3.43
2017-12-03T13:13:47.351Z,3.39
2017-12-03T13:14:47.852Z,3.42
2017-12-03T13:16:41.284Z,3.35
2017-12-03T13:17:40.765Z,3.45
2017-12-03T13:19:34.706Z,3.37
2017-12-03T13:20:34.194Z,3.35
2017-12-03T13:22:28.653Z,3.43
2017-12-03T13:23:28.598Z,3.30
2017-12-03T13:25:24.552Z,3.32
2017-12-03T13:26:24.535Z,3.26
2017-12-03T13:28:19.464Z,3.27
2017-12-03T13:29:18.944Z,3.29
2017-12-03T13:31:13.423Z,3.20
2017-12-03T13:32:13.396Z,3.29
2017-12-03T13:34:11.335Z,3.32
2017-12-03T13:35:11.330Z,3.17
2017-12-03T13:37:05.791Z,3.17
2017-12-03T13:38:05.767Z,3.17
2017-12-03T13:40:00.252Z,3.34
2017-12-03T13:41:00.200Z,3.20
2017-12-03T13:42:54.601Z,3.30
2017-12-03T13:43:55.153Z,3.34
2017-12-03T13:45:49.055Z,3.32
2017-12-03T13:46:49.005Z,3.29
2017-12-03T13:48:42.467Z,3.40
2017-12-03T13:49:42.462Z,3.35
2017-12-03T13:51:38.409Z,3.45
2017-12-03T13:52:38.372Z,3.46
2017-12-03T13:54:32.795Z,3.45
2017-12-03T13:55:32.807Z,3.42
2017-12-03T13:57:28.297Z,3.46
2017-12-03T13:58:26.225Z,3.48
2017-12-03T14:00:19.654Z,3.49
2017-12-03T14:01:19.668Z,3.42
2017-12-03T14:03:14.081Z,3.40
2017-12-03T14:04:14.619Z,3.35
2017-12-03T14:06:09.987Z,3.34
2017-12-03T14:07:09.980Z,3.35
2017-12-03T14:09:05.945Z,3.39
2017-12-03T14:10:05.911Z,3.46
2017-12-03T14:12:01.357Z,3.48
2017-12-03T14:13:00.357Z,3.46
2017-12-03T14:14:54.298Z,3.45
2017-12-03T14:15:53.764Z,3.51
2017-12-03T14:17:48.200Z,3.49
2017-12-03T14:18:48.201Z,3.51
2017-12-03T14:20:43.129Z,3.53
2017-12-03T14:21:42.612Z,3.56
2017-12-03T14:23:37.064Z,3.56
2017-12-03T14:24:37.048Z,3.66
2017-12-03T14:26:31.969Z,3.63
2017-12-03T14:27:31.447Z,3.56
2017-12-03T14:29:25.924Z,3.63
2017-12-03T14:30:26.394Z,3.58
2017-12-03T14:32:21.844Z,3.66
2017-12-03T14:33:20.826Z,3.64
2017-12-03T14:35:14.788Z,3.74
2017-12-03T14:36:14.744Z,3.72
2017-12-03T14:38:09.693Z,3.75
2017-12-03T14:39:09.164Z,3.84
2017-12-03T14:41:05.126Z,3.75
2017-12-03T14:42:05.612Z,3.75
2017-12-03T14:43:59.517Z,3.78
2017-12-03T14:44:59.526Z,3.81
2017-12-03T14:46:54.476Z,3.75
2017-12-03T14:47:53.961Z,3.76
2017-12-03T14:49:48.902Z,3.74
2017-12-03T14:50:48.893Z,3.74
2017-12-03T14:52:42.788Z,3.74
2017-12-03T14:53:42.783Z,3.79
2017-12-03T14:55:37.223Z,3.75
2017-12-03T14:56:37.206Z,3.79
2017-12-03T14:58:34.153Z,3.78
2017-12-03T14:59:33.651Z,3.78
2017-12-03T15:01:26.575Z,3.84
2017-12-03T15:02:26.563Z,3.84
2017-12-03T15:04:19.994Z,3.82
2017-12-03T15:05:19.988Z,3.79
2017-12-03T15:07:14.449Z,3.72
2017-12-03T15:08:14.934Z,3.76
2017-12-03T15:10:09.860Z,3.81
2017-12-03T15:11:08.851Z,3.72
2017-12-03T15:13:04.810Z,3.79
2017-12-03T15:14:05.303Z,3.76
2017-12-03T15:15:59.698Z,3.86
2017-12-03T15:16:59.699Z,3.92
2017-12-03T15:18:55.148Z,3.79
2017-12-03T15:19:54.133Z,3.79
2017-12-03T15:21:48.073Z,3.76
2017-12-03T15:22:48.550Z,3.82
2017-12-03T15:24:42.995Z,3.85
2017-12-03T15:25:42.459Z,3.89
2017-12-03T15:27:36.902Z,3.92
2017-12-03T15:28:36.873Z,3.92
2017-12-03T15:30:33.839Z,3.93
2017-12-03T15:31:32.810Z,3.79
2017-12-03T15:33:27.270Z,3.81
2017-12-03T15:34:27.256Z,3.89
2017-12-03T15:36:21.684Z,3.79
2017-12-03T15:37:21.673Z,3.82
2017-12-03T15:39:16.118Z,3.86
2017-12-03T15:40:15.132Z,3.81
2017-12-03T15:42:09.605Z,3.79
2017-12-03T15:43:09.578Z,3.79
2017-12-03T15:45:04.548Z,3.82
2017-12-03T15:46:04.014Z,3.92
2017-12-03T15:47:58.465Z,3.92
2017-12-03T15:48:58.445Z,3.85
2017-12-03T15:50:52.396Z,3.82
2017-12-03T15:51:51.867Z,3.79
2017-12-03T15:53:46.813Z,3.82
2017-12-03T15:54:46.296Z,3.89
2017-12-03T15:56:40.759Z,3.89
2017-12-03T15:57:40.740Z,3.89
2017-12-03T15:59:36.672Z,3.94
2017-12-03T16:00:36.633Z,3.89
2017-12-03T16:02:31.063Z,3.93
2017-12-03T16:03:31.044Z,3.84
2017-12-03T16:05:24.460Z,3.90
2017-12-03T16:06:24.457Z,3.90
2017-12-03T16:08:18.926Z,3.84
2017-12-03T16:09:18.907Z,3.82
2017-12-03T16:11:13.338Z,3.85
2017-12-03T16:12:13.330Z,3.79
2017-12-03T16:14:08.273Z,3.92
2017-12-03T16:15:07.769Z,3.82
2017-12-03T16:17:01.733Z,3.94
2017-12-03T16:18:01.719Z,3.90
2017-12-03T16:19:55.626Z,3.94
2017-12-03T16:20:55.596Z,3.82
2017-12-03T16:22:51.069Z,3.84
2017-12-03T16:23:49.995Z,3.85
2017-12-03T16:25:45.443Z,3.82
2017-12-03T16:26:44.425Z,3.85
2017-12-03T16:28:39.358Z,3.90
2017-12-03T16:29:38.857Z,3.84
2017-12-03T16:31:33.799Z,3.82
2017-12-03T16:32:33.271Z,3.84
2017-12-03T16:34:28.219Z,3.82
2017-12-03T16:35:27.721Z,3.93
2017-12-03T16:37:21.644Z,3.96
2017-12-03T16:38:21.134Z,3.93
2017-12-03T16:40:15.543Z,3.86
2017-12-03T16:41:15.537Z,4.02
2017-12-03T16:43:08.988Z,4.11
2017-12-03T16:44:09.496Z,3.92
2017-12-03T16:46:03.368Z,4.02
2017-12-03T16:47:03.371Z,4.00
2017-12-03T16:48:57.315Z,3.89
2017-12-03T16:49:57.741Z,3.93
2017-12-03T16:51:51.243Z,3.94
2017-12-03T16:52:51.243Z,4.08
2017-12-03T16:54:44.675Z,4.07
2017-12-03T16:55:44.652Z,4.10
2017-12-03T16:57:39.611Z,4.08
2017-12-03T16:58:39.078Z,4.04
2017-12-03T17:00:34.531Z,4.00
2017-12-03T17:01:33.535Z,4.07
2017-12-03T17:03:29.958Z,4.04
2017-12-03T17:04:29.434Z,4.03
2017-12-03T17:06:24.403Z,3.97
2017-12-03T17:07:23.858Z,4.04
2017-12-03T17:09:19.834Z,4.07
2017-12-03T17:10:19.845Z,3.92
2017-12-03T17:12:14.252Z,4.04
2017-12-03T17:13:14.275Z,4.12
2017-12-03T17:15:08.730Z,4.20
2017-12-03T17:16:08.688Z,4.12
2017-12-03T17:18:03.105Z,4.10
2017-12-03T17:19:03.123Z,4.08
2017-12-03T17:20:56.543Z,4.11
2017-12-03T17:21:56.530Z,4.14
2017-12-03T17:23:51.006Z,4.15
2017-12-03T17:24:50.957Z,4.12
2017-12-03T17:26:44.416Z,4.12
2017-12-03T17:27:44.394Z,4.18
2017-12-03T17:29:38.814Z,4.10
2017-12-03T17:30:38.800Z,4.15
2017-12-03T17:32:33.223Z,4.10
2017-12-03T17:33:33.201Z,4.21
2017-12-03T17:35:27.674Z,4.10
2017-12-03T17:36:27.623Z,4.10
2017-12-03T17:38:22.567Z,4.10
2017-12-03T17:39:22.040Z,4.21
2017-12-03T17:41:17.432Z,4.12
2017-12-03T17:42:16.501Z,4.26
2017-12-03T17:44:10.446Z,4.15
2017-12-03T17:45:10.439Z,4.18
2017-12-03T17:47:04.334Z,4.10
2017-12-03T17:48:04.339Z,4.11
2017-12-03T17:49:57.795Z,4.12
2017-12-03T17:50:57.785Z,4.21
2017-12-03T17:52:52.250Z,4.26
2017-12-03T17:53:52.198Z,4.20
2017-12-03T17:55:45.640Z,4.20
2017-12-03T17:56:45.639Z,4.21
2017-12-03T17:58:40.085Z,4.15
2017-12-03T17:59:40.563Z,4.26
2017-12-03T18:01:35.504Z,4.24
2017-12-03T18:02:35.530Z,4.22
2017-12-03T18:04:29.018Z,4.14
2017-12-03T18:05:28.970Z,4.14
2017-12-03T18:07:23.414Z,4.18
2017-12-03T18:08:23.416Z,4.15
2017-12-03T18:10:19.284Z,4.20
2017-12-03T18:11:17.843Z,4.24
2017-12-03T18:13:12.784Z,4.20
2017-12-03T18:14:11.791Z,4.21
2017-12-03T18:16:05.689Z,4.17
2017-12-03T18:17:05.696Z,4.26
2017-12-03T18:18:59.640Z,4.22
2017-12-03T18:19:59.161Z,4.17
2017-12-03T18:21:54.562Z,4.21
2017-12-03T18:22:53.538Z,4.21
2017-12-03T18:24:47.984Z,4.28
2017-12-03T18:25:47.975Z,4.29
2017-12-03T18:27:41.474Z,4.29
2017-12-03T18:28:41.935Z,4.18
2017-12-03T18:30:35.825Z,4.20
2017-12-03T18:31:35.808Z,4.22
2017-12-03T18:33:30.214Z,4.35
2017-12-03T18:34:29.754Z,4.35
2017-12-03T18:36:22.696Z,4.42
2017-12-03T18:37:22.651Z,4.38
2017-12-03T18:39:17.095Z,4.42
2017-12-03T18:40:17.603Z,4.40
2017-12-03T18:42:11.036Z,4.40
2017-12-03T18:43:10.520Z,4.46
2017-12-03T18:45:05.038Z,4.42
2017-12-03T18:46:04.996Z,4.46
2017-12-03T18:47:59.412Z,4.48
2017-12-03T18:48:59.389Z,4.50
2017-12-03T18:50:53.856Z,4.42
2017-12-03T18:51:54.352Z,4.44
2017-12-03T18:53:48.251Z,4.47
2017-12-03T18:54:48.249Z,4.44
2017-12-03T18:56:42.711Z,4.42
2017-12-03T18:57:42.682Z,4.51
2017-12-03T18:59:37.127Z,4.50
2017-12-03T19:00:36.241Z,4.54
2017-12-03T19:02:30.655Z,4.51
2017-12-03T19:03:31.198Z,4.46
2017-12-03T19:05:25.091Z,4.53
2017-12-03T19:06:25.042Z,4.56
2017-12-03T19:08:18.504Z,4.66
2017-12-03T19:09:18.490Z,4.57
2017-12-03T19:11:11.943Z,4.58
2017-12-03T19:12:11.948Z,4.53
2017-12-03T19:14:05.399Z,4.51
2017-12-03T19:15:05.368Z,4.58
2017-12-03T19:16:59.827Z,4.53
2017-12-03T19:17:59.797Z,4.58
2017-12-03T19:19:53.228Z,4.54
2017-12-03T19:20:53.218Z,4.47
2017-12-03T19:22:47.678Z,4.53
2017-12-03T19:23:47.615Z,4.51
2017-12-03T19:25:42.564Z,4.54